Time;durP1;ratioP1;P1;durP2;ratioP2;P2;SDS_P1;SDS_P2;PMS_P1;PMS_P2;Temp;Humidity;BMP_temperature;BMP_pressure;BME280_temperature;BME280_humidity;BME280_pressure;Samples;Min_cycle;Max_cycle;Signal;HPM_P1;HPM_P2
2022/06/26 05:26:10;;;;;;;;;;;25.90;90.10;;;;;;4981332;28;20021;-77
2022/06/26 05:28:37;;;;;;;;;;;25.90;90.20;;;;;;4978040;28;19929;-77
2022/06/26 05:31:03;;;;;;;;;;;25.90;90.20;;;;;;4978096;28;19928;-77
2022/06/26 05:33:30;;;;;;;;;;;25.90;90.20;;;;;;4977946;28;20020;-77
2022/06/26 05:35:57;;;;;;;;;;;25.90;90.20;;;;;;4978892;28;20017;-78
2022/06/26 05:38:23;;;;;;;;;;;25.90;90.20;;;;;;4978631;28;20021;-78
2022/06/26 05:40:50;;;;;;;;;;;25.90;90.20;;;;;;4978993;28;20025;-79
2022/06/26 05:43:18;;;;;;;;;;;25.90;90.20;;;;;;4978853;28;19932;-79
2022/06/26 05:45:45;;;;;;;;;;;25.90;90.30;;;;;;4978477;28;19944;-79
2022/06/26 05:48:11;;;;;;;;;;;25.90;90.30;;;;;;4978406;28;20033;-79
2022/06/26 05:50:38;;;;;;;;;;;25.90;90.60;;;;;;4978707;28;19964;-79
2022/06/26 05:53:05;;;;;;;;;;;25.90;90.30;;;;;;4978588;28;19961;-79
2022/06/26 05:55:33;;;;;;;;;;;25.90;90.40;;;;;;4978823;28;20459;-79
2022/06/26 05:58:00;;;;;;;;;;;25.90;90.40;;;;;;4978495;28;19922;-79
2022/06/26 06:00:28;;;;;;;;;;;25.90;90.50;;;;;;4977912;28;19922;-79
2022/06/26 06:02:55;;;;;;;;;;;25.90;90.50;;;;;;4978601;28;19928;-80
2022/06/26 06:05:22;;;;;;;;;;;25.90;90.50;;;;;;4979218;28;19926;-79
2022/06/26 06:07:49;;;;;;;;;;;25.90;90.50;;;;;;4979235;28;19928;-79
2022/06/26 06:10:15;;;;;;;;;;;25.90;90.50;;;;;;4979842;28;20016;-80
2022/06/26 06:12:42;;;;;;;;;;;25.90;90.60;;;;;;4979483;28;19961;-80
2022/06/26 06:15:09;;;;;;;;;;;25.90;90.50;;;;;;4979330;28;19922;-80
2022/06/26 06:17:37;;;;;;;;;;;25.90;90.50;;;;;;4979131;28;20465;-79
2022/06/26 06:20:05;;;;;;;;;;;25.90;90.60;;;;;;4979119;28;19961;-80
2022/06/26 06:22:32;;;;;;;;;;;25.90;90.70;;;;;;4979200;28;19932;-80
2022/06/26 06:24:58;;;;;;;;;;;25.90;90.70;;;;;;4978960;28;20005;-80
2022/06/26 06:27:25;;;;;;;;;;;25.90;90.80;;;;;;4978989;28;19964;-80
2022/06/26 06:29:52;;;;;;;;;;;25.90;90.80;;;;;;4980651;28;19926;-85
2022/06/26 06:32:18;;;;;;;;;;;26.00;90.90;;;;;;4982664;28;20289;-85
2022/06/26 06:34:46;;;;;;;;;;;25.90;90.90;;;;;;4981943;28;19993;-86
2022/06/26 06:37:13;;;;;;;;;;;25.90;90.90;;;;;;4978950;28;19995;-85
2022/06/26 06:39:40;;;;;;;;;;;25.90;90.80;;;;;;4980820;28;19962;-85
2022/06/26 06:42:06;;;;;;;;;;;25.90;90.80;;;;;;4980423;28;20020;-85
2022/06/26 06:44:33;;;;;;;;;;;25.90;90.80;;;;;;4979130;28;20339;-87
2022/06/26 06:47:00;;;;;;;;;;;25.90;90.80;;;;;;4977243;28;20004;-87
2022/06/26 06:49:26;;;;;;;;;;;25.90;90.80;;;;;;4976756;28;19922;-89
2022/06/26 06:51:55;;;;;;;;;;;25.90;90.70;;;;;;4976946;28;19961;-90
2022/06/26 06:54:21;;;;;;;;;;;25.90;90.60;;;;;;4976551;28;20005;-87
2022/06/26 06:56:48;;;;;;;;;;;25.80;90.50;;;;;;4976689;28;19945;-88
2022/06/26 06:59:15;;;;;;;;;;;25.80;90.50;;;;;;4976394;28;20016;-89
2022/06/26 07:01:42;;;;;;;;;;;25.80;90.50;;;;;;4976447;28;20304;-90
2022/06/26 07:04:09;;;;;;;;;;;25.80;90.50;;;;;;4976348;28;19922;-88
2022/06/26 07:06:35;;;;;;;;;;;25.80;90.40;;;;;;4976190;28;20346;-89
2022/06/26 07:09:04;;;;;;;;;;;25.80;90.00;;;;;;4976388;28;19926;-89
2022/06/26 07:11:30;;;;;;;;;;;25.80;89.80;;;;;;4976880;28;19922;-89
2022/06/26 07:13:57;;;;;;;;;;;25.70;89.50;;;;;;4976739;28;20013;-87
2022/06/26 07:16:24;;;;;;;;;;;25.70;89.10;;;;;;4976406;28;20028;-88
2022/06/26 07:18:50;;;;;;;;;;;25.70;89.20;;;;;;4976912;28;20009;-87
2022/06/26 07:21:17;;;;;;;;;;;25.70;89.20;;;;;;4976379;28;20025;-87
2022/06/26 07:23:44;;;;;;;;;;;25.70;88.40;;;;;;4975974;28;20381;-88
2022/06/26 07:26:12;;;;;;;;;;;25.60;88.00;;;;;;4976094;28;19922;-87
2022/06/26 07:28:38;;;;;;;;;;;25.60;88.20;;;;;;4977471;28;20353;-85
2022/06/26 07:31:05;;;;;;;;;;;25.70;88.30;;;;;;4977336;28;19944;-82
2022/06/26 07:36:16;;;;;;;;;;;25.70;88.30;;;;;;4977555;28;19925;-82
2022/06/26 07:38:43;;;;;;;;;;;25.70;88.10;;;;;;4977919;28;19926;-83
2022/06/26 07:41:09;;;;;;;;;;;25.70;88.00;;;;;;4977289;28;19965;-83
2022/06/26 07:43:37;;;;;;;;;;;25.70;87.80;;;;;;4977377;28;19958;-82
2022/06/26 07:46:04;;;;;;;;;;;25.70;87.60;;;;;;4977258;28;19928;-78
2022/06/26 07:48:31;;;;;;;;;;;25.70;87.30;;;;;;4976352;28;19922;-79
2022/06/26 07:50:58;;;;;;;;;;;25.70;87.20;;;;;;4976040;28;19922;-79
2022/06/26 07:53:24;;;;;;;;;;;25.70;87.10;;;;;;4976401;28;19969;-79
2022/06/26 07:55:51;;;;;;;;;;;25.80;87.10;;;;;;4976432;28;20304;-79
2022/06/26 07:58:18;;;;;;;;;;;25.80;86.90;;;;;;4976322;28;19922;-79
2022/06/26 08:00:46;;;;;;;;;;;25.80;86.70;;;;;;4976030;28;20385;-79
2022/06/26 08:03:13;;;;;;;;;;;25.80;86.50;;;;;;4976108;28;19922;-79
2022/06/26 08:05:40;;;;;;;;;;;25.80;86.30;;;;;;4976385;28;20032;-79
2022/06/26 08:08:08;;;;;;;;;;;25.80;86.10;;;;;;4976201;28;20113;-79
2022/06/26 08:10:35;;;;;;;;;;;25.80;85.90;;;;;;4975852;28;20404;-79
2022/06/26 08:13:02;;;;;;;;;;;25.80;85.50;;;;;;4975790;28;20400;-79
2022/06/26 08:15:29;;;;;;;;;;;25.80;85.50;;;;;;4975819;28;19922;-79
2022/06/26 08:17:57;;;;;;;;;;;25.80;85.50;;;;;;4975874;28;20432;-79
2022/06/26 08:20:24;;;;;;;;;;;25.80;85.50;;;;;;4976017;28;19926;-79
2022/06/26 08:22:50;;;;;;;;;;;25.80;85.50;;;;;;4976133;28;20020;-79
2022/06/26 08:25:17;;;;;;;;;;;25.80;85.40;;;;;;4975990;28;19937;-79
2022/06/26 08:27:44;;;;;;;;;;;25.80;85.10;;;;;;4975786;28;19926;-79
2022/06/26 08:30:11;;;;;;;;;;;25.80;85.00;;;;;;4975956;28;19929;-79
2022/06/26 08:32:37;;;;;;;;;;;25.80;84.80;;;;;;4975874;28;19921;-79
2022/06/26 08:35:06;;;;;;;;;;;25.80;84.60;;;;;;4975559;28;19932;-79
2022/06/26 08:37:33;;;;;;;;;;;25.80;84.50;;;;;;4976597;28;19922;-79
2022/06/26 08:40:00;;;;;;;;;;;25.80;84.30;;;;;;4978440;28;19921;-79
2022/06/26 08:42:27;;;;;;;;;;;25.80;84.10;;;;;;4977488;28;19929;-82
2022/06/26 08:44:56;;;;;;;;;;;25.80;84.00;;;;;;4979168;28;19922;-83
2022/06/26 08:47:24;;;;;;;;;;;25.90;83.90;;;;;;4979619;28;19928;-84
2022/06/26 08:49:51;;;;;;;;;;;25.90;83.80;;;;;;4979373;28;19929;-83
2022/06/26 08:52:20;;;;;;;;;;;25.80;83.60;;;;;;4979316;28;19921;-83
2022/06/26 08:54:47;;;;;;;;;;;25.90;83.40;;;;;;4977774;28;20012;-83
2022/06/26 08:57:14;;;;;;;;;;;25.90;83.30;;;;;;4978520;28;20017;-83
2022/06/26 08:59:41;;;;;;;;;;;25.90;83.20;;;;;;4978667;28;20015;-83
2022/06/26 09:02:08;;;;;;;;;;;25.90;83.00;;;;;;4978565;28;19922;-84
2022/06/26 09:04:36;;;;;;;;;;;25.90;82.90;;;;;;4982776;28;19926;-83
2022/06/26 09:07:03;;;;;;;;;;;25.90;82.80;;;;;;4981705;28;19930;-83
2022/06/26 09:09:31;;;;;;;;;;;25.90;82.60;;;;;;4981409;28;20293;-82
2022/06/26 09:11:58;;;;;;;;;;;25.90;82.60;;;;;;4980326;28;19922;-82
2022/06/26 09:14:26;;;;;;;;;;;25.90;82.40;;;;;;4980145;28;19949;-82
2022/06/26 09:16:53;;;;;;;;;;;25.90;82.30;;;;;;4979906;28;19969;-82
2022/06/26 09:19:20;;;;;;;;;;;25.90;82.10;;;;;;4980056;28;19921;-82
2022/06/26 09:21:48;;;;;;;;;;;25.90;82.00;;;;;;4979456;28;19995;-82
2022/06/26 09:24:15;;;;;;;;;;;25.90;81.80;;;;;;4979288;28;20016;-82
2022/06/26 09:26:44;;;;;;;;;;;25.90;81.60;;;;;;4979562;28;19922;-82
2022/06/26 09:29:11;;;;;;;;;;;25.90;81.40;;;;;;4980439;28;19921;-82
2022/06/26 09:31:38;;;;;;;;;;;25.90;81.30;;;;;;4979999;28;20012;-84
2022/06/26 09:34:05;;;;;;;;;;;25.90;80.80;;;;;;4979885;28;20350;-82
2022/06/26 09:36:32;;;;;;;;;;;25.90;80.40;;;;;;4979919;28;20004;-82
2022/06/26 09:38:58;;;;;;;;;;;25.90;80.30;;;;;;4980803;28;19922;-82
2022/06/26 09:41:29;;;;;;;;;;;25.90;79.90;;;;;;4980246;28;19926;-83
2022/06/26 09:43:57;;;;;;;;;;;25.90;79.80;;;;;;4978848;28;20408;-82
2022/06/26 09:46:28;;;;;;;;;;;25.90;79.80;;;;;;4979585;28;20408;-82
2022/06/26 09:48:57;;;;;;;;;;;25.90;79.80;;;;;;4980100;28;19964;-83
2022/06/26 09:51:24;;;;;;;;;;;25.90;79.80;;;;;;4979624;28;19922;-83
2022/06/26 09:53:51;;;;;;;;;;;25.90;79.40;;;;;;4979491;28;19922;-83
2022/06/26 09:56:18;;;;;;;;;;;25.90;79.10;;;;;;4980308;28;19922;-83
2022/06/26 09:58:45;;;;;;;;;;;25.90;79.00;;;;;;4980184;28;19977;-83
2022/06/26 10:06:43;;;;;;;;;;;25.90;78.20;;;;;;4982365;28;20106;-84
2022/06/26 10:09:10;;;;;;;;;;;25.90;78.00;;;;;;4981693;28;19929;-83
2022/06/26 10:11:38;;;;;;;;;;;25.90;77.80;;;;;;4981401;28;19929;-84
2022/06/26 10:14:07;;;;;;;;;;;25.90;77.50;;;;;;4979589;28;19925;-83
2022/06/26 10:16:48;;;;;;;;;;;25.90;77.30;;;;;;4979522;28;19929;-83
2022/06/26 10:19:27;;;;;;;;;;;25.90;77.20;;;;;;4966436;28;19926;-83
2022/06/26 10:21:54;;;;;;;;;;;25.90;76.90;;;;;;4981548;28;20021;-83
2022/06/26 10:24:21;;;;;;;;;;;25.90;76.80;;;;;;4980481;28;19992;-83
2022/06/26 10:26:54;;;;;;;;;;;25.90;76.60;;;;;;4979223;28;19929;-83
2022/06/26 10:29:21;;;;;;;;;;;25.90;76.40;;;;;;4979587;28;19975;-83
2022/06/26 10:31:49;;;;;;;;;;;25.90;76.20;;;;;;4979586;28;19922;-83
2022/06/26 10:34:17;;;;;;;;;;;25.90;75.90;;;;;;4978117;28;19972;-83
2022/06/26 10:36:56;;;;;;;;;;;25.90;75.40;;;;;;4979447;28;19922;-82
2022/06/26 10:39:23;;;;;;;;;;;25.90;74.70;;;;;;4978466;28;19922;-83
2022/06/26 10:44:38;;;;;;;;;;;25.90;73.90;;;;;;4978528;28;19937;-84
2022/06/26 10:47:13;;;;;;;;;;;25.90;73.90;;;;;;4978050;28;19929;-84
2022/06/26 10:49:46;;;;;;;;;;;25.90;73.90;;;;;;4978148;28;19944;-84
2022/06/26 10:52:24;;;;;;;;;;;25.90;73.90;;;;;;4979122;28;20366;-85
2022/06/26 10:54:51;;;;;;;;;;;25.90;73.50;;;;;;4979039;28;20313;-84
2022/06/26 10:57:18;;;;;;;;;;;25.90;73.30;;;;;;4977897;28;20013;-84
2022/06/26 10:59:45;;;;;;;;;;;26.00;73.30;;;;;;4978126;28;20266;-84
2022/06/26 11:02:12;;;;;;;;;;;26.00;73.10;;;;;;4978652;28;19968;-84
2022/06/26 11:04:45;;;;;;;;;;;26.00;73.00;;;;;;4978126;28;19928;-84
2022/06/26 11:07:13;;;;;;;;;;;26.00;72.90;;;;;;4978662;28;19951;-84
2022/06/26 11:09:41;;;;;;;;;;;26.00;72.90;;;;;;4978774;28;19922;-84
2022/06/26 11:12:08;;;;;;;;;;;26.10;72.80;;;;;;4978766;28;19928;-84
2022/06/26 11:14:35;;;;;;;;;;;26.00;72.80;;;;;;4978084;28;19972;-84
2022/06/26 11:17:02;;;;;;;;;;;26.10;72.80;;;;;;4978301;28;19922;-84
2022/06/26 11:19:29;;;;;;;;;;;26.10;72.60;;;;;;4978205;28;19972;-84
2022/06/26 11:22:04;;;;;;;;;;;26.10;72.30;;;;;;4977536;28;19976;-84
2022/06/26 11:24:31;;;;;;;;;;;26.10;72.70;;;;;;4977422;28;19929;-84
2022/06/26 11:26:59;;;;;;;;;;;26.20;72.90;;;;;;4976823;28;19922;-84
2022/06/26 11:29:25;;;;;;;;;;;26.20;73.10;;;;;;4977628;28;20381;-83
2022/06/26 11:31:52;;;;;;;;;;;26.20;73.30;;;;;;4978448;28;19944;-84
2022/06/26 11:34:20;;;;;;;;;;;26.20;73.50;;;;;;4978114;28;19944;-83
2022/06/26 11:36:50;;;;;;;;;;;26.20;73.40;;;;;;4977662;28;19922;-78
2022/06/26 11:39:17;;;;;;;;;;;26.20;73.20;;;;;;4976301;28;20381;-78
2022/06/26 11:41:44;;;;;;;;;;;26.20;73.00;;;;;;4978607;28;19921;-79
2022/06/26 11:44:12;;;;;;;;;;;26.20;72.80;;;;;;4976996;28;19962;-79
2022/06/26 11:46:40;;;;;;;;;;;26.20;72.90;;;;;;4977027;28;19978;-80
2022/06/26 11:49:09;;;;;;;;;;;26.20;72.80;;;;;;4977482;28;20362;-78
2022/06/26 11:51:37;;;;;;;;;;;26.20;72.50;;;;;;4978748;28;19926;-79
2022/06/26 11:54:04;;;;;;;;;;;26.20;72.40;;;;;;4977173;28;19922;-78
2022/06/26 11:56:31;;;;;;;;;;;26.20;72.30;;;;;;4976560;28;19930;-83
2022/06/26 11:58:59;;;;;;;;;;;26.20;71.90;;;;;;4977352;28;20005;-79
2022/06/26 12:01:32;;;;;;;;;;;26.20;71.50;;;;;;4978380;28;20420;-81
2022/06/26 12:03:58;;;;;;;;;;;26.20;71.30;;;;;;4976808;28;19922;-87
2022/06/26 12:06:32;;;;;;;;;;;26.20;71.00;;;;;;4978002;28;19924;-86
2022/06/26 12:08:59;;;;;;;;;;;26.20;70.60;;;;;;4979555;28;19922;-87
2022/06/26 12:11:26;;;;;;;;;;;26.20;70.20;;;;;;4979843;28;20021;-86
2022/06/26 12:13:53;;;;;;;;;;;26.20;70.00;;;;;;4979074;28;19922;-86
2022/06/26 12:16:20;;;;;;;;;;;26.20;69.70;;;;;;4978265;28;20004;-86
2022/06/26 12:18:49;;;;;;;;;;;26.20;69.30;;;;;;4979792;28;19922;-87
2022/06/26 12:21:16;;;;;;;;;;;26.20;68.80;;;;;;4980848;28;19988;-87
2022/06/26 12:23:45;;;;;;;;;;;26.20;68.20;;;;;;4979995;28;19980;-87
2022/06/26 12:26:12;;;;;;;;;;;26.20;68.10;;;;;;4983627;28;20013;-90
2022/06/26 12:28:43;;;;;;;;;;;26.20;68.10;;;;;;4984007;28;19976;-90
2022/06/26 12:31:11;;;;;;;;;;;26.20;68.10;;;;;;4985129;28;19949;-90
2022/06/26 12:33:38;;;;;;;;;;;26.20;67.60;;;;;;4985406;28;19925;-91
2022/06/26 12:36:13;;;;;;;;;;;26.20;67.10;;;;;;4982932;28;19922;-90
2022/06/26 12:38:40;;;;;;;;;;;26.30;66.80;;;;;;4987503;28;19922;-89
2022/06/26 12:41:16;;;;;;;;;;;26.20;66.60;;;;;;4987754;28;19957;-86
2022/06/26 12:43:44;;;;;;;;;;;26.30;66.30;;;;;;4986981;28;19975;-84
2022/06/26 12:46:11;;;;;;;;;;;26.30;66.00;;;;;;4987777;28;19922;-86
2022/06/26 12:48:38;;;;;;;;;;;26.30;65.80;;;;;;4988314;28;19929;-85
2022/06/26 12:51:07;;;;;;;;;;;26.30;65.60;;;;;;4988466;28;19976;-86
2022/06/26 12:53:34;;;;;;;;;;;26.30;65.20;;;;;;4987501;28;19922;-85
2022/06/26 12:56:01;;;;;;;;;;;26.30;64.60;;;;;;4988350;28;19945;-86
2022/06/26 12:58:29;;;;;;;;;;;26.30;64.30;;;;;;4987318;28;19921;-86
2022/06/26 13:00:55;;;;;;;;;;;26.30;64.00;;;;;;4988314;28;19922;-85
2022/06/26 13:03:23;;;;;;;;;;;26.30;63.60;;;;;;4987428;28;19946;-84
2022/06/26 13:05:50;;;;;;;;;;;26.30;63.30;;;;;;4987617;28;19922;-84
2022/06/26 13:08:18;;;;;;;;;;;26.30;63.10;;;;;;4987308;28;19933;-84
2022/06/26 13:10:46;;;;;;;;;;;26.30;62.90;;;;;;4989125;28;19922;-84
2022/06/26 13:13:13;;;;;;;;;;;26.40;62.70;;;;;;4981686;28;19985;-90
2022/06/26 13:15:39;;;;;;;;;;;26.40;62.20;;;;;;4980448;28;20018;-83
2022/06/26 13:18:06;;;;;;;;;;;26.40;62.10;;;;;;4981951;28;19992;-82
2022/06/26 13:20:33;;;;;;;;;;;26.40;62.20;;;;;;4981056;28;20404;-82
2022/06/26 13:23:00;;;;;;;;;;;26.40;62.00;;;;;;4982047;28;19988;-82
2022/06/26 13:25:28;;;;;;;;;;;26.40;61.70;;;;;;4982574;28;20289;-82
2022/06/26 13:27:55;;;;;;;;;;;26.40;61.50;;;;;;4982201;28;20009;-82
2022/06/26 13:30:22;;;;;;;;;;;26.40;61.20;;;;;;4983063;28;20289;-82
2022/06/26 13:32:50;;;;;;;;;;;26.40;61.10;;;;;;4982546;28;20013;-82
2022/06/26 13:35:16;;;;;;;;;;;26.50;61.00;;;;;;4982096;28;20028;-82
2022/06/26 13:37:43;;;;;;;;;;;26.50;60.80;;;;;;4981063;28;19922;-82
2022/06/26 13:40:10;;;;;;;;;;;26.50;60.60;;;;;;4981450;28;19981;-82
2022/06/26 13:42:39;;;;;;;;;;;26.50;60.50;;;;;;4981636;28;19921;-82
2022/06/26 13:45:06;;;;;;;;;;;26.50;60.40;;;;;;4981174;28;19928;-82
2022/06/26 13:47:33;;;;;;;;;;;26.50;60.10;;;;;;4981464;28;20017;-84
2022/06/26 13:50:00;;;;;;;;;;;26.50;60.00;;;;;;4980313;28;19928;-85
2022/06/26 13:52:27;;;;;;;;;;;26.50;59.80;;;;;;4980341;28;19926;-84
2022/06/26 13:54:53;;;;;;;;;;;26.50;59.80;;;;;;4979816;28;19922;-84
2022/06/26 13:57:20;;;;;;;;;;;26.60;59.80;;;;;;4979482;28;19922;-84
2022/06/26 13:59:48;;;;;;;;;;;26.50;59.50;;;;;;4978906;28;19932;-84
2022/06/26 14:02:15;;;;;;;;;;;26.50;59.50;;;;;;4978595;28;20378;-84
2022/06/26 14:04:42;;;;;;;;;;;26.60;59.50;;;;;;4979808;28;20400;-84
2022/06/26 14:07:08;;;;;;;;;;;26.60;59.40;;;;;;4979030;28;20301;-84
2022/06/26 14:09:38;;;;;;;;;;;26.60;59.20;;;;;;4979579;28;20012;-84
2022/06/26 14:12:04;;;;;;;;;;;26.50;59.10;;;;;;4979695;28;19922;-84
2022/06/26 14:14:31;;;;;;;;;;;26.50;58.90;;;;;;4979376;28;19928;-84
2022/06/26 14:16:59;;;;;;;;;;;26.50;58.80;;;;;;4979201;28;20370;-84
2022/06/26 14:19:26;;;;;;;;;;;26.50;58.70;;;;;;4978849;28;20354;-84
2022/06/26 14:25:55;;;;;;;;;;;26.50;58.60;;;;;;4978749;28;20008;-84
2022/06/26 14:27:25;;;;;;;;;;;26.50;58.40;;;;;;4978777;28;19925;-84
2022/06/26 14:29:53;;;;;;;;;;;26.50;58.30;;;;;;4978094;28;19922;-84
2022/06/26 14:32:21;;;;;;;;;;;26.50;58.20;;;;;;4978636;28;19945;-84
2022/06/26 14:34:47;;;;;;;;;;;26.50;58.20;;;;;;4978676;28;20281;-84
2022/06/26 14:37:14;;;;;;;;;;;26.50;58.10;;;;;;4978742;28;20357;-84
2022/06/26 14:39:40;;;;;;;;;;;26.50;57.90;;;;;;4979397;28;20349;-85
2022/06/26 14:42:07;;;;;;;;;;;26.40;57.80;;;;;;4978659;28;20400;-85
2022/06/26 14:44:34;;;;;;;;;;;26.50;57.80;;;;;;4980117;28;20292;-85
2022/06/26 14:47:00;;;;;;;;;;;26.50;57.60;;;;;;4980380;28;20365;-83
2022/06/26 14:49:28;;;;;;;;;;;26.50;57.60;;;;;;4980100;28;20385;-84
2022/06/26 14:51:55;;;;;;;;;;;26.50;57.50;;;;;;4979958;28;19929;-84
2022/06/26 14:54:24;;;;;;;;;;;26.50;57.40;;;;;;4980404;28;19922;-85
2022/06/26 14:56:50;;;;;;;;;;;26.40;57.20;;;;;;4980453;28;19922;-84
2022/06/26 14:59:17;;;;;;;;;;;26.40;57.10;;;;;;4979623;28;19973;-84
2022/06/26 15:01:44;;;;;;;;;;;26.40;57.00;;;;;;4978237;28;19928;-84
2022/06/26 15:04:10;;;;;;;;;;;26.40;56.90;;;;;;4977877;28;19976;-83
2022/06/26 15:06:38;;;;;;;;;;;26.40;56.90;;;;;;4981646;28;19993;-83
2022/06/26 15:09:05;;;;;;;;;;;26.40;56.90;;;;;;4983703;28;19957;-83
2022/06/26 15:11:32;;;;;;;;;;;26.40;56.90;;;;;;4984492;28;20376;-83
2022/06/26 15:13:58;;;;;;;;;;;26.40;56.90;;;;;;4984953;28;19922;-83
2022/06/26 15:16:25;;;;;;;;;;;26.40;56.80;;;;;;4987233;28;19922;-83
2022/06/26 15:18:51;;;;;;;;;;;26.40;56.90;;;;;;4986175;28;20016;-83
2022/06/26 15:21:18;;;;;;;;;;;26.40;56.90;;;;;;4990140;28;19961;-83
2022/06/26 15:23:46;;;;;;;;;;;26.40;56.90;;;;;;4988918;28;19981;-83
2022/06/26 15:26:13;;;;;;;;;;;26.40;56.70;;;;;;4992173;28;19958;-83
2022/06/26 15:28:39;;;;;;;;;;;26.40;56.60;;;;;;4989640;28;20009;-83
2022/06/26 15:31:06;;;;;;;;;;;26.40;57.20;;;;;;4991208;28;19969;-89
2022/06/26 15:33:33;;;;;;;;;;;26.40;56.50;;;;;;4987050;28;19957;-84
2022/06/26 15:35:59;;;;;;;;;;;26.40;57.10;;;;;;4987051;28;19922;-85
2022/06/26 15:38:26;;;;;;;;;;;26.40;56.40;;;;;;4986316;28;20016;-85
2022/06/26 15:40:54;;;;;;;;;;;26.40;56.30;;;;;;4985248;28;19969;-84
2022/06/26 15:43:21;;;;;;;;;;;26.40;56.30;;;;;;4984509;28;19990;-84
2022/06/26 15:45:48;;;;;;;;;;;26.40;56.20;;;;;;4983132;28;19925;-84
2022/06/26 15:48:14;;;;;;;;;;;26.40;56.20;;;;;;4983588;28;19966;-84
2022/06/26 15:50:41;;;;;;;;;;;26.40;56.20;;;;;;4983615;28;19922;-84
2022/06/26 15:53:08;;;;;;;;;;;26.40;56.20;;;;;;4983812;28;19926;-84
2022/06/26 15:55:35;;;;;;;;;;;26.40;56.10;;;;;;4982105;28;20342;-88
2022/06/26 15:58:03;;;;;;;;;;;26.40;56.10;;;;;;4983490;28;19922;-85
2022/06/26 16:00:29;;;;;;;;;;;26.40;56.10;;;;;;4982534;28;20004;-84
2022/06/26 16:02:56;;;;;;;;;;;26.40;56.10;;;;;;4982842;28;19982;-84
2022/06/26 16:05:23;;;;;;;;;;;26.40;56.10;;;;;;4983599;28;19962;-85
2022/06/26 16:07:49;;;;;;;;;;;26.40;56.10;;;;;;4983683;28;20008;-90
2022/06/26 16:10:16;;;;;;;;;;;26.40;56.10;;;;;;4977509;28;19953;-86
2022/06/26 16:12:43;;;;;;;;;;;26.40;56.10;;;;;;4976144;28;19928;-88
2022/06/26 16:15:11;;;;;;;;;;;26.40;56.10;;;;;;4980562;28;19950;-88
2022/06/26 16:17:39;;;;;;;;;;;26.40;56.10;;;;;;4982265;28;20342;-90
2022/06/26 16:20:07;;;;;;;;;;;26.40;56.20;;;;;;4982094;28;19922;-90
2022/06/26 16:28:02;;;;;;;;;;;26.50;56.60;;;;;;4978096;28;20400;-90
2022/06/26 16:30:30;;;;;;;;;;;26.50;56.80;;;;;;4975537;28;20021;-91
2022/06/26 16:32:57;;;;;;;;;;;26.50;56.90;;;;;;4975428;28;20008;-92
2022/06/26 16:35:25;;;;;;;;;;;26.50;56.90;;;;;;4975480;28;19965;-90
2022/06/26 16:37:52;;;;;;;;;;;26.50;56.90;;;;;;4976127;28;19922;-87
2022/06/26 16:40:20;;;;;;;;;;;26.50;56.90;;;;;;4975478;28;19932;-93
2022/06/26 16:42:46;;;;;;;;;;;26.50;56.90;;;;;;4975504;28;19922;-92
2022/06/26 16:45:14;;;;;;;;;;;26.50;57.00;;;;;;4976308;28;20012;-91
2022/06/26 16:47:42;;;;;;;;;;;26.50;57.00;;;;;;4978537;28;19922;-87
2022/06/26 16:50:10;;;;;;;;;;;26.60;57.30;;;;;;4980921;28;20029;-85
2022/06/26 16:52:37;;;;;;;;;;;26.60;57.40;;;;;;4982044;28;20362;-86
2022/06/26 16:55:05;;;;;;;;;;;26.60;57.40;;;;;;4980180;28;19969;-87
2022/06/26 16:57:31;;;;;;;;;;;26.60;58.10;;;;;;4982008;28;20445;-85
2022/06/26 16:59:58;;;;;;;;;;;26.60;57.50;;;;;;4983740;28;19929;-85
2022/06/26 17:02:25;;;;;;;;;;;26.50;57.50;;;;;;4982708;28;20357;-85
2022/06/26 17:04:53;;;;;;;;;;;26.50;57.50;;;;;;4981032;28;20379;-87
2022/06/26 17:07:20;;;;;;;;;;;26.50;57.50;;;;;;4980342;28;19925;-84
2022/06/26 17:09:47;;;;;;;;;;;26.50;57.50;;;;;;4979815;28;19927;-82
2022/06/26 17:12:14;;;;;;;;;;;26.50;57.60;;;;;;4981936;28;20009;-80
2022/06/26 17:14:44;;;;;;;;;;;26.50;57.70;;;;;;4980659;28;19922;-80
2022/06/26 17:17:11;;;;;;;;;;;26.50;57.70;;;;;;4980322;28;19926;-78
2022/06/26 17:19:38;;;;;;;;;;;26.50;57.80;;;;;;4980480;28;20008;-78
2022/06/26 17:22:07;;;;;;;;;;;26.50;57.80;;;;;;4980595;28;20370;-78
2022/06/26 17:24:35;;;;;;;;;;;26.50;57.90;;;;;;4982872;28;19985;-78
2022/06/26 17:27:02;;;;;;;;;;;26.50;57.80;;;;;;4984318;28;20004;-78
2022/06/26 17:29:31;;;;;;;;;;;26.50;57.80;;;;;;4983146;28;20367;-78
2022/06/26 17:31:58;;;;;;;;;;;26.40;57.80;;;;;;4986469;28;19922;-78
2022/06/26 17:34:25;;;;;;;;;;;26.50;57.80;;;;;;4987131;28;19929;-79
2022/06/26 17:36:52;;;;;;;;;;;26.50;57.90;;;;;;4988979;28;19922;-82
2022/06/26 17:39:20;;;;;;;;;;;26.40;57.90;;;;;;4990738;28;19998;-81
2022/06/26 17:41:47;;;;;;;;;;;26.40;57.90;;;;;;4988256;28;20005;-81
2022/06/26 17:44:13;;;;;;;;;;;26.50;58.00;;;;;;4986157;28;19981;-81
2022/06/26 17:46:40;;;;;;;;;;;26.40;57.90;;;;;;4983626;28;19964;-85
2022/06/26 17:49:06;;;;;;;;;;;26.40;58.00;;;;;;4985031;28;20017;-82
2022/06/26 17:51:33;;;;;;;;;;;26.40;58.00;;;;;;4984709;28;19989;-83
2022/06/26 17:54:00;;;;;;;;;;;26.40;58.10;;;;;;4985124;28;20004;-83
2022/06/26 17:56:28;;;;;;;;;;;26.40;58.20;;;;;;4984399;28;19992;-83
2022/06/26 17:58:55;;;;;;;;;;;26.40;58.30;;;;;;4983829;28;19956;-84
2022/06/26 18:01:22;;;;;;;;;;;26.40;58.30;;;;;;4986182;28;19965;-84
2022/06/26 18:03:48;;;;;;;;;;;26.40;58.40;;;;;;4983882;28;20016;-84
2022/06/26 18:06:16;;;;;;;;;;;26.40;58.50;;;;;;4984457;28;19949;-84
2022/06/26 18:08:44;;;;;;;;;;;26.40;58.60;;;;;;4985690;28;19922;-84
2022/06/26 18:11:11;;;;;;;;;;;26.40;58.70;;;;;;4986203;28;20347;-84
2022/06/26 18:13:40;;;;;;;;;;;26.40;58.70;;;;;;4986901;28;19922;-84
2022/06/26 18:16:08;;;;;;;;;;;26.40;58.80;;;;;;4987818;28;19989;-84
2022/06/26 18:18:35;;;;;;;;;;;26.40;58.80;;;;;;4988664;28;19922;-84
2022/06/26 18:21:02;;;;;;;;;;;26.40;59.00;;;;;;4986710;28;20041;-84
2022/06/26 18:23:29;;;;;;;;;;;26.40;59.00;;;;;;4986880;28;19972;-84
2022/06/26 18:25:55;;;;;;;;;;;26.40;59.20;;;;;;4986694;28;20005;-84
2022/06/26 18:28:23;;;;;;;;;;;26.40;59.20;;;;;;4985594;28;19964;-85
2022/06/26 18:30:52;;;;;;;;;;;26.40;59.30;;;;;;4985577;28;19988;-85
2022/06/26 18:33:19;;;;;;;;;;;26.40;59.50;;;;;;4985611;28;19972;-86
2022/06/26 18:35:45;;;;;;;;;;;26.40;59.60;;;;;;4984018;28;20011;-85
2022/06/26 18:38:12;;;;;;;;;;;26.40;59.80;;;;;;4983416;28;19968;-86
2022/06/26 18:40:39;;;;;;;;;;;26.40;59.90;;;;;;4984161;28;20009;-85
2022/06/26 18:43:05;;;;;;;;;;;26.40;60.10;;;;;;4992665;28;19961;-85
2022/06/26 18:45:32;;;;;;;;;;;26.50;60.40;;;;;;4994817;28;19929;-85
2022/06/26 18:48:00;;;;;;;;;;;26.50;60.60;;;;;;4994508;28;19922;-85
2022/06/26 18:50:27;;;;;;;;;;;26.50;60.90;;;;;;4993869;28;19954;-84
2022/06/26 18:52:54;;;;;;;;;;;26.50;61.00;;;;;;4994117;28;19922;-86
2022/06/26 18:55:21;;;;;;;;;;;26.50;61.30;;;;;;4992667;28;19906;-86
2022/06/26 18:57:49;;;;;;;;;;;26.50;61.50;;;;;;4992927;28;19922;-85
2022/06/26 19:00:17;;;;;;;;;;;26.50;61.70;;;;;;4994133;28;19953;-86
2022/06/26 19:02:44;;;;;;;;;;;26.50;62.10;;;;;;4993242;28;19922;-86
2022/06/26 19:05:12;;;;;;;;;;;26.50;62.20;;;;;;4991555;28;19949;-84
2022/06/26 19:07:39;;;;;;;;;;;26.50;62.20;;;;;;4990620;28;19957;-85
2022/06/26 19:10:06;;;;;;;;;;;26.50;62.20;;;;;;4990448;28;20029;-85
2022/06/26 19:15:17;;;;;;;;;;;26.50;62.90;;;;;;4989146;28;19945;-86
2022/06/26 19:17:44;;;;;;;;;;;26.50;63.20;;;;;;4986256;28;19958;-85
2022/06/26 19:20:12;;;;;;;;;;;26.50;63.40;;;;;;4984853;28;19922;-85
2022/06/26 19:22:39;;;;;;;;;;;26.50;63.70;;;;;;4987949;28;19977;-85
2022/06/26 19:25:06;;;;;;;;;;;26.50;64.00;;;;;;4983718;28;20331;-86
2022/06/26 19:27:33;;;;;;;;;;;26.50;64.30;;;;;;4981561;28;20435;-86
2022/06/26 19:30:00;;;;;;;;;;;26.50;64.50;;;;;;4984621;28;19965;-85
2022/06/26 19:32:26;;;;;;;;;;;26.50;64.70;;;;;;4988199;28;19961;-86
2022/06/26 19:34:53;;;;;;;;;;;26.50;65.00;;;;;;4990589;28;19972;-86
2022/06/26 19:37:21;;;;;;;;;;;26.50;65.20;;;;;;4983899;28;19989;-86
2022/06/26 19:39:48;;;;;;;;;;;26.50;65.50;;;;;;4984338;28;19922;-85
2022/06/26 19:42:21;;;;;;;;;;;26.50;65.80;;;;;;4984041;28;19973;-85
2022/06/26 19:44:48;;;;;;;;;;;26.50;66.00;;;;;;4983422;28;19961;-85
2022/06/26 19:47:15;;;;;;;;;;;26.50;66.40;;;;;;4984213;28;20370;-84
2022/06/26 19:52:28;;;;;;;;;;;26.50;66.90;;;;;;4979682;28;20380;-87
2022/06/26 19:54:55;;;;;;;;;;;26.50;67.30;;;;;;4979107;28;19922;-85
2022/06/26 19:57:21;;;;;;;;;;;26.50;67.70;;;;;;4983695;28;19969;-85
2022/06/26 19:59:48;;;;;;;;;;;26.50;68.10;;;;;;4983974;28;19961;-85
2022/06/26 20:02:15;;;;;;;;;;;26.50;68.30;;;;;;4982939;28;20012;-85
2022/06/26 20:04:41;;;;;;;;;;;26.50;68.30;;;;;;4981208;28;19922;-85
2022/06/26 20:07:08;;;;;;;;;;;26.50;68.70;;;;;;4980821;28;19989;-81